Holloman Air Force Base
KHMN : now visible

Airfield :











YOU CAN JOIN US ON...

 
LOGIN :

Register | Disclaimer

   EN    FR    IT 

 









Legend :    VFR   Marginal VFR   IFR   Intensive IFR   Very Intensive IFR
Visi :
Ceiling :
>= 8 km
>= 3000ft
5 to 8 km
1000 to 3000 ft
1500m to 5 km
500 to 1000 ft
800 to 1500m
200 to 500 ft
< 800m
< 200 ft
Symbols :   Thunderstorms  Fog  Heavy snow  Heavy precipitations  Wind > 20 kt







- Airport Elevation : 4093 ft


KHMN - Holloman Air Force Base

CURRENT METAR :
  • 201958Z AUTO 15006KT 10SM FEW080 BKN100 30/13 A2998 RMK AO2 SLP081 T03030127 $

EXPIRED METARs :
  • 201858Z AUTO 15009KT 10SM CLR 29/14 A3001 RMK AO2 SLP089 T02910141 $
  • 201758Z AUTO 16011KT 10SM FEW095 28/16 A3003 RMK AO2 SLP096 T02820155 10282 20176 50000 $

TAF TAF KHMN
Valid from the 20 at 17:00 until the 21 at 23:00 UTC


201655Z 2017/2123 20012G18KT 9999 FEW080 SCT120 QNH3003INS TS OMTNS E
BECMG 2102/2103 VRB06KT 9999 FEW120 QNH3002INS
BECMG 2107/2108 VRB06KT 9999 SCT080 BKN100 QNH3003INS
TEMPO 2109/2112 VRB06KT 9000 -SHRA BKN080
BECMG 2112/2113 VRB06KT 9999 NSW BKN080 QNH3008INS
BECMG 2119/2120 19012KT 9999 BKN120 QNH3010INS TS OMTNS E TX33/2022Z TN16/2113Z
No reported NOTAMs for that airfield.



MET'MAP, your aeronautical weather chart ! - Copyright ORBIFLY December 2007 - Disclaimer

ORBIFLY MET'MAP TEAM :

Programming & Development : Alexandra Zaïnal
Concept & Development : Baudouin d'Aumeries
Co-Development & Prog : Marc-Olivier Méhu
Technical & hardware support : Manuel Goepfert

Contact : metmap@orbifly.com




SOURCES & CREDITS :

   NOAA       Earth
Advisory